sensor_id;sensor_type;location;lat;lon;timestamp;pressure;altitude;pressure_sealevel;temperature;humidity
51524;BME280;37610;51.790;21.590;2022-12-18T00:03:57;101365.03;;;-5.21;80.95
51524;BME280;37610;51.790;21.590;2022-12-18T00:07:59;101377.61;;;-5.28;81.00
51524;BME280;37610;51.790;21.590;2022-12-18T00:12:00;101383.48;;;-5.32;81.06
51524;BME280;37610;51.790;21.590;2022-12-18T00:16:03;101383.91;;;-5.34;80.91
51524;BME280;37610;51.790;21.590;2022-12-18T00:20:06;101392.21;;;-5.35;80.85
51524;BME280;37610;51.790;21.590;2022-12-18T00:24:09;101391.45;;;-5.37;81.16
51524;BME280;37610;51.790;21.590;2022-12-18T00:28:11;101392.60;;;-5.40;80.95
51524;BME280;37610;51.790;21.590;2022-12-18T00:32:13;101399.30;;;-5.36;81.11
51524;BME280;37610;51.790;21.590;2022-12-18T00:36:17;101404.38;;;-5.28;81.16
51524;BME280;37610;51.790;21.590;2022-12-18T00:40:19;101418.02;;;-5.23;80.82
51524;BME280;37610;51.790;21.590;2022-12-18T00:44:20;101420.75;;;-5.23;80.47
51524;BME280;37610;51.790;21.590;2022-12-18T00:48:22;101421.91;;;-5.25;80.67
51524;BME280;37610;51.790;21.590;2022-12-18T00:52:23;101424.27;;;-5.24;80.85
51524;BME280;37610;51.790;21.590;2022-12-18T00:56:25;101429.70;;;-5.23;80.83
51524;BME280;37610;51.790;21.590;2022-12-18T01:00:27;101433.36;;;-5.21;80.71
51524;BME280;37610;51.790;21.590;2022-12-18T01:04:31;101441.62;;;-5.18;80.50
51524;BME280;37610;51.790;21.590;2022-12-18T01:08:33;101441.65;;;-5.15;80.38
51524;BME280;37610;51.790;21.590;2022-12-18T01:12:35;101439.55;;;-5.14;80.29
51524;BME280;37610;51.790;21.590;2022-12-18T01:16:36;101447.08;;;-5.10;80.51
51524;BME280;37610;51.790;21.590;2022-12-18T01:20:38;101452.13;;;-5.12;80.19
51524;BME280;37610;51.790;21.590;2022-12-18T01:24:39;101453.20;;;-5.12;80.32
51524;BME280;37610;51.790;21.590;2022-12-18T01:28:41;101462.16;;;-5.09;80.22
51524;BME280;37610;51.790;21.590;2022-12-18T01:32:44;101465.17;;;-5.01;80.23
51524;BME280;37610;51.790;21.590;2022-12-18T01:36:46;101471.08;;;-4.96;80.07
51524;BME280;37610;51.790;21.590;2022-12-18T01:40:47;101476.83;;;-4.94;80.26
51524;BME280;37610;51.790;21.590;2022-12-18T01:48:56;101478.19;;;-4.91;80.03
51524;BME280;37610;51.790;21.590;2022-12-18T01:53:00;101485.00;;;-4.97;79.75
51524;BME280;37610;51.790;21.590;2022-12-18T01:57:03;101488.11;;;-4.97;79.47
51524;BME280;37610;51.790;21.590;2022-12-18T02:01:05;101495.23;;;-4.98;79.37
51524;BME280;37610;51.790;21.590;2022-12-18T02:05:07;101502.09;;;-4.94;79.57
51524;BME280;37610;51.790;21.590;2022-12-18T02:09:17;101502.52;;;-4.96;79.45
51524;BME280;37610;51.790;21.590;2022-12-18T02:17:52;101515.64;;;-4.94;79.52
51524;BME280;37610;51.790;21.590;2022-12-18T02:22:14;101516.88;;;-4.91;79.32
51524;BME280;37610;51.790;21.590;2022-12-18T02:26:22;101518.08;;;-4.92;79.45
51524;BME280;37610;51.790;21.590;2022-12-18T02:30:31;101521.86;;;-4.92;79.58
51524;BME280;37610;51.790;21.590;2022-12-18T02:34:37;101532.86;;;-4.92;79.57
51524;BME280;37610;51.790;21.590;2022-12-18T02:38:39;101539.77;;;-4.93;79.33
51524;BME280;37610;51.790;21.590;2022-12-18T02:42:41;101538.11;;;-4.94;79.27
51524;BME280;37610;51.790;21.590;2022-12-18T02:46:46;101540.97;;;-4.92;79.09
51524;BME280;37610;51.790;21.590;2022-12-18T02:51:03;101541.42;;;-4.91;79.64
51524;BME280;37610;51.790;21.590;2022-12-18T02:59:44;101553.64;;;-4.88;79.60
51524;BME280;37610;51.790;21.590;2022-12-18T03:03:59;101564.09;;;-4.88;79.37
51524;BME280;37610;51.790;21.590;2022-12-18T03:08:06;101568.39;;;-4.84;79.61
51524;BME280;37610;51.790;21.590;2022-12-18T03:12:21;101574.80;;;-4.82;79.60
51524;BME280;37610;51.790;21.590;2022-12-18T03:16:27;101580.12;;;-4.79;79.84
51524;BME280;37610;51.790;21.590;2022-12-18T03:20:31;101588.45;;;-4.73;79.75
51524;BME280;37610;51.790;21.590;2022-12-18T03:24:35;101600.86;;;-4.64;79.66
51524;BME280;37610;51.790;21.590;2022-12-18T03:28:59;101599.80;;;-4.60;79.21
51524;BME280;37610;51.790;21.590;2022-12-18T03:33:20;101606.61;;;-4.52;79.24
51524;BME280;37610;51.790;21.590;2022-12-18T03:37:25;101607.84;;;-4.49;79.33
51524;BME280;37610;51.790;21.590;2022-12-18T03:42:07;101616.65;;;-4.53;79.45
51524;BME280;37610;51.790;21.590;2022-12-18T03:46:17;101619.41;;;-4.53;79.41
51524;BME280;37610;51.790;21.590;2022-12-18T03:54:34;101623.43;;;-4.58;79.15
51524;BME280;37610;51.790;21.590;2022-12-18T03:58:38;101626.97;;;-4.57;79.33
51524;BME280;37610;51.790;21.590;2022-12-18T04:02:48;101635.54;;;-4.49;79.43
51524;BME280;37610;51.790;21.590;2022-12-18T04:06:52;101639.70;;;-4.40;79.34
51524;BME280;37610;51.790;21.590;2022-12-18T04:10:54;101637.96;;;-4.33;79.30
51524;BME280;37610;51.790;21.590;2022-12-18T04:14:55;101639.30;;;-4.32;79.02
51524;BME280;37610;51.790;21.590;2022-12-18T04:18:57;101641.53;;;-4.32;79.39
51524;BME280;37610;51.790;21.590;2022-12-18T04:22:58;101643.42;;;-4.32;79.50
51524;BME280;37610;51.790;21.590;2022-12-18T04:27:00;101645.40;;;-4.37;79.20
51524;BME280;37610;51.790;21.590;2022-12-18T04:31:01;101649.66;;;-4.36;79.17
51524;BME280;37610;51.790;21.590;2022-12-18T04:35:04;101656.10;;;-4.31;79.15
51524;BME280;37610;51.790;21.590;2022-12-18T04:39:08;101660.03;;;-4.27;78.99
51524;BME280;37610;51.790;21.590;2022-12-18T04:43:09;101659.85;;;-4.30;79.06
51524;BME280;37610;51.790;21.590;2022-12-18T04:47:11;101667.44;;;-4.34;79.25
51524;BME280;37610;51.790;21.590;2022-12-18T04:51:13;101677.96;;;-4.38;79.26
51524;BME280;37610;51.790;21.590;2022-12-18T04:55:14;101684.35;;;-4.42;79.01
51524;BME280;37610;51.790;21.590;2022-12-18T04:59:16;101684.55;;;-4.43;78.93
51524;BME280;37610;51.790;21.590;2022-12-18T05:03:17;101693.31;;;-4.43;78.70
51524;BME280;37610;51.790;21.590;2022-12-18T05:07:19;101698.71;;;-4.41;78.62
51524;BME280;37610;51.790;21.590;2022-12-18T05:11:21;101703.68;;;-4.44;78.82
51524;BME280;37610;51.790;21.590;2022-12-18T05:15:22;101715.67;;;-4.43;78.98
51524;BME280;37610;51.790;21.590;2022-12-18T05:19:24;101718.01;;;-4.49;79.00
51524;BME280;37610;51.790;21.590;2022-12-18T05:23:26;101723.67;;;-4.52;79.16
51524;BME280;37610;51.790;21.590;2022-12-18T05:27:27;101733.81;;;-4.55;79.03
51524;BME280;37610;51.790;21.590;2022-12-18T05:31:29;101742.78;;;-4.56;79.04
51524;BME280;37610;51.790;21.590;2022-12-18T05:35:30;101755.48;;;-4.52;78.78
51524;BME280;37610;51.790;21.590;2022-12-18T05:39:32;101756.25;;;-4.51;78.59
51524;BME280;37610;51.790;21.590;2022-12-18T05:43:36;101758.92;;;-4.46;78.76
51524;BME280;37610;51.790;21.590;2022-12-18T05:47:38;101767.38;;;-4.39;79.01
51524;BME280;37610;51.790;21.590;2022-12-18T05:51:39;101776.39;;;-4.37;79.02
51524;BME280;37610;51.790;21.590;2022-12-18T05:55:42;101776.40;;;-4.37;78.92
51524;BME280;37610;51.790;21.590;2022-12-18T05:59:44;101779.20;;;-4.38;78.81
51524;BME280;37610;51.790;21.590;2022-12-18T06:03:46;101783.34;;;-4.39;78.58
51524;BME280;37610;51.790;21.590;2022-12-18T06:07:47;101788.09;;;-4.37;78.27
51524;BME280;37610;51.790;21.590;2022-12-18T06:11:51;101795.22;;;-4.39;78.52
51524;BME280;37610;51.790;21.590;2022-12-18T06:15:53;101801.70;;;-4.41;78.46
51524;BME280;37610;51.790;21.590;2022-12-18T06:19:55;101809.95;;;-4.45;78.43
51524;BME280;37610;51.790;21.590;2022-12-18T06:23:56;101817.81;;;-4.44;78.23
51524;BME280;37610;51.790;21.590;2022-12-18T06:27:58;101826.26;;;-4.41;78.04
51524;BME280;37610;51.790;21.590;2022-12-18T06:31:59;101836.77;;;-4.45;78.08
51524;BME280;37610;51.790;21.590;2022-12-18T06:36:06;101845.01;;;-4.48;78.29
51524;BME280;37610;51.790;21.590;2022-12-18T06:40:09;101847.79;;;-4.49;78.40
51524;BME280;37610;51.790;21.590;2022-12-18T06:44:10;101855.83;;;-4.52;77.90
51524;BME280;37610;51.790;21.590;2022-12-18T06:48:12;101861.02;;;-4.56;77.69
51524;BME280;37610;51.790;21.590;2022-12-18T06:52:13;101872.05;;;-4.57;78.28
51524;BME280;37610;51.790;21.590;2022-12-18T06:56:16;101877.49;;;-4.56;78.26
51524;BME280;37610;51.790;21.590;2022-12-18T07:00:17;101884.80;;;-4.54;78.26
51524;BME280;37610;51.790;21.590;2022-12-18T07:04:19;101892.02;;;-4.58;77.95
51524;BME280;37610;51.790;21.590;2022-12-18T07:08:21;101896.39;;;-4.56;77.98
51524;BME280;37610;51.790;21.590;2022-12-18T07:12:22;101900.36;;;-4.52;77.78
51524;BME280;37610;51.790;21.590;2022-12-18T07:16:24;101906.53;;;-4.52;77.85
51524;BME280;37610;51.790;21.590;2022-12-18T07:20:25;101913.31;;;-4.57;77.60
51524;BME280;37610;51.790;21.590;2022-12-18T07:24:27;101921.14;;;-4.59;77.64
51524;BME280;37610;51.790;21.590;2022-12-18T07:28:29;101933.24;;;-4.57;77.45
51524;BME280;37610;51.790;21.590;2022-12-18T07:32:31;101935.70;;;-4.55;77.54
51524;BME280;37610;51.790;21.590;2022-12-18T07:36:32;101942.76;;;-4.51;77.48
51524;BME280;37610;51.790;21.590;2022-12-18T07:40:34;101947.14;;;-4.53;77.30
51524;BME280;37610;51.790;21.590;2022-12-18T07:44:36;101955.91;;;-4.53;77.51
51524;BME280;37610;51.790;21.590;2022-12-18T07:48:37;101959.05;;;-4.54;77.06
51524;BME280;37610;51.790;21.590;2022-12-18T07:52:39;101964.70;;;-4.50;77.22
51524;BME280;37610;51.790;21.590;2022-12-18T07:56:40;101968.36;;;-4.44;77.23
51524;BME280;37610;51.790;21.590;2022-12-18T08:00:42;101972.33;;;-4.36;77.26
51524;BME280;37610;51.790;21.590;2022-12-18T08:04:43;101980.91;;;-4.36;77.17
51524;BME280;37610;51.790;21.590;2022-12-18T08:08:45;101986.31;;;-4.34;77.01
51524;BME280;37610;51.790;21.590;2022-12-18T08:12:50;101993.45;;;-4.32;76.87
51524;BME280;37610;51.790;21.590;2022-12-18T08:16:52;102010.12;;;-4.32;76.84
51524;BME280;37610;51.790;21.590;2022-12-18T08:20:54;102007.27;;;-4.26;77.02
51524;BME280;37610;51.790;21.590;2022-12-18T08:24:56;102013.01;;;-4.16;76.80
51524;BME280;37610;51.790;21.590;2022-12-18T08:28:59;102020.02;;;-4.07;76.61
51524;BME280;37610;51.790;21.590;2022-12-18T08:33:00;102027.16;;;-4.02;76.62
51524;BME280;37610;51.790;21.590;2022-12-18T08:37:02;102026.95;;;-4.01;75.94
51524;BME280;37610;51.790;21.590;2022-12-18T08:41:09;102034.39;;;-4.02;76.05
51524;BME280;37610;51.790;21.590;2022-12-18T08:45:10;102043.86;;;-4.02;75.65
51524;BME280;37610;51.790;21.590;2022-12-18T08:49:12;102047.20;;;-3.99;75.68
51524;BME280;37610;51.790;21.590;2022-12-18T08:53:13;102050.84;;;-3.93;75.60
51524;BME280;37610;51.790;21.590;2022-12-18T08:57:15;102054.73;;;-3.91;75.48
51524;BME280;37610;51.790;21.590;2022-12-18T09:01:17;102059.38;;;-3.99;74.81
51524;BME280;37610;51.790;21.590;2022-12-18T09:05:18;102063.70;;;-4.07;74.98
51524;BME280;37610;51.790;21.590;2022-12-18T09:09:20;102066.34;;;-3.93;75.57
51524;BME280;37610;51.790;21.590;2022-12-18T09:13:22;102069.20;;;-3.81;75.23
51524;BME280;37610;51.790;21.590;2022-12-18T09:17:24;102074.59;;;-3.74;75.25
51524;BME280;37610;51.790;21.590;2022-12-18T09:21:28;102070.56;;;-3.62;75.48
51524;BME280;37610;51.790;21.590;2022-12-18T09:25:31;102074.62;;;-3.49;75.38
51524;BME280;37610;51.790;21.590;2022-12-18T09:29:34;102079.71;;;-3.44;75.45
51524;BME280;37610;51.790;21.590;2022-12-18T09:33:36;102083.82;;;-3.47;75.02
51524;BME280;37610;51.790;21.590;2022-12-18T09:37:38;102094.08;;;-3.49;74.73
51524;BME280;37610;51.790;21.590;2022-12-18T09:41:52;102096.98;;;-3.63;74.22
51524;BME280;37610;51.790;21.590;2022-12-18T09:46:03;102095.23;;;-3.70;74.39
51524;BME280;37610;51.790;21.590;2022-12-18T09:50:40;102094.52;;;-3.81;73.68
51524;BME280;37610;51.790;21.590;2022-12-18T09:54:42;102098.00;;;-3.74;74.72
51524;BME280;37610;51.790;21.590;2022-12-18T09:58:51;102097.74;;;-3.61;74.99
51524;BME280;37610;51.790;21.590;2022-12-18T10:03:02;102104.41;;;-3.64;74.36
51524;BME280;37610;51.790;21.590;2022-12-18T10:07:20;102116.08;;;-3.78;73.86
51524;BME280;37610;51.790;21.590;2022-12-18T10:24:45;102110.36;;;-3.77;73.82
51524;BME280;37610;51.790;21.590;2022-12-18T10:28:51;102110.91;;;-3.71;74.22
51524;BME280;37610;51.790;21.590;2022-12-18T10:32:53;102117.25;;;-3.63;74.31
51524;BME280;37610;51.790;21.590;2022-12-18T10:36:56;102122.05;;;-3.58;74.28
51524;BME280;37610;51.790;21.590;2022-12-18T10:40:58;102123.43;;;-3.43;74.64
51524;BME280;37610;51.790;21.590;2022-12-18T10:45:07;102123.77;;;-3.21;75.19
51524;BME280;37610;51.790;21.590;2022-12-18T10:49:22;102134.71;;;-3.20;74.07
51524;BME280;37610;51.790;21.590;2022-12-18T10:53:27;102142.89;;;-3.25;74.29
51524;BME280;37610;51.790;21.590;2022-12-18T10:57:32;102131.71;;;-3.04;74.73
51524;BME280;37610;51.790;21.590;2022-12-18T11:01:54;102130.45;;;-2.85;74.48
51524;BME280;37610;51.790;21.590;2022-12-18T11:06:11;102127.40;;;-2.83;74.42
51524;BME280;37610;51.790;21.590;2022-12-18T11:10:17;102126.97;;;-2.81;74.51
51524;BME280;37610;51.790;21.590;2022-12-18T11:14:23;102133.51;;;-2.74;74.08
51524;BME280;37610;51.790;21.590;2022-12-18T11:18:32;102141.78;;;-2.70;73.65
51524;BME280;37610;51.790;21.590;2022-12-18T11:22:36;102141.25;;;-2.73;74.08
51524;BME280;37610;51.790;21.590;2022-12-18T11:26:39;102145.59;;;-2.64;74.41
51524;BME280;37610;51.790;21.590;2022-12-18T11:30:44;102147.06;;;-2.59;74.17
51524;BME280;37610;51.790;21.590;2022-12-18T11:34:49;102138.13;;;-2.55;73.97
51524;BME280;37610;51.790;21.590;2022-12-18T11:38:55;102142.09;;;-2.48;73.53
51524;BME280;37610;51.790;21.590;2022-12-18T11:47:15;102149.55;;;-2.64;73.86
51524;BME280;37610;51.790;21.590;2022-12-18T11:51:26;102150.55;;;-2.76;73.63
51524;BME280;37610;51.790;21.590;2022-12-18T12:00:19;102153.18;;;-2.95;73.58
51524;BME280;37610;51.790;21.590;2022-12-18T12:09:06;102163.48;;;-2.94;73.60
51524;BME280;37610;51.790;21.590;2022-12-18T12:13:16;102166.56;;;-3.01;73.35
51524;BME280;37610;51.790;21.590;2022-12-18T12:17:45;102166.52;;;-3.18;73.42
51524;BME280;37610;51.790;21.590;2022-12-18T12:22:10;102169.19;;;-3.09;74.26
51524;BME280;37610;51.790;21.590;2022-12-18T12:26:24;102178.98;;;-3.01;74.15
51524;BME280;37610;51.790;21.590;2022-12-18T12:39:07;102212.63;;;-3.10;72.98
51524;BME280;37610;51.790;21.590;2022-12-18T12:43:24;102208.46;;;-3.17;73.86
51524;BME280;37610;51.790;21.590;2022-12-18T12:47:32;102206.65;;;-3.00;74.43
51524;BME280;37610;51.790;21.590;2022-12-18T12:51:39;102212.08;;;-2.87;74.27
51524;BME280;37610;51.790;21.590;2022-12-18T12:55:42;102214.22;;;-2.81;74.39
51524;BME280;37610;51.790;21.590;2022-12-18T13:08:23;102224.40;;;-2.86;73.66
51524;BME280;37610;51.790;21.590;2022-12-18T13:12:25;102233.17;;;-2.89;73.96
51524;BME280;37610;51.790;21.590;2022-12-18T13:16:50;102236.73;;;-2.91;73.88
51524;BME280;37610;51.790;21.590;2022-12-18T13:24:59;102248.02;;;-2.97;73.60
51524;BME280;37610;51.790;21.590;2022-12-18T13:29:02;102243.66;;;-3.10;73.45
51524;BME280;37610;51.790;21.590;2022-12-18T13:41:33;102259.17;;;-3.41;73.70
51524;BME280;37610;51.790;21.590;2022-12-18T13:45:38;102262.42;;;-3.56;73.75
51524;BME280;37610;51.790;21.590;2022-12-18T13:49:44;102264.73;;;-3.62;73.86
51524;BME280;37610;51.790;21.590;2022-12-18T13:53:53;102275.20;;;-3.65;74.03
51524;BME280;37610;51.790;21.590;2022-12-18T13:58:05;102282.11;;;-3.70;74.04
51524;BME280;37610;51.790;21.590;2022-12-18T14:02:14;102284.71;;;-3.70;74.38
51524;BME280;37610;51.790;21.590;2022-12-18T14:06:16;102285.77;;;-3.82;74.37
51524;BME280;37610;51.790;21.590;2022-12-18T14:10:18;102288.50;;;-3.78;74.73
51524;BME280;37610;51.790;21.590;2022-12-18T14:14:20;102291.20;;;-3.77;74.53
51524;BME280;37610;51.790;21.590;2022-12-18T14:18:24;102287.58;;;-3.85;74.34
51524;BME280;37610;51.790;21.590;2022-12-18T14:22:27;102287.02;;;-3.92;74.67
51524;BME280;37610;51.790;21.590;2022-12-18T14:26:31;102286.30;;;-4.00;74.77
51524;BME280;37610;51.790;21.590;2022-12-18T14:30:38;102290.88;;;-4.14;75.03
51524;BME280;37610;51.790;21.590;2022-12-18T14:34:40;102304.38;;;-4.29;75.28
51524;BME280;37610;51.790;21.590;2022-12-18T14:38:41;102312.48;;;-4.34;75.28
51524;BME280;37610;51.790;21.590;2022-12-18T14:42:43;102320.50;;;-4.32;75.29
51524;BME280;37610;51.790;21.590;2022-12-18T14:46:46;102321.81;;;-4.40;75.94
51524;BME280;37610;51.790;21.590;2022-12-18T14:50:57;102323.31;;;-4.43;75.74
51524;BME280;37610;51.790;21.590;2022-12-18T14:54:59;102318.17;;;-4.43;75.56
51524;BME280;37610;51.790;21.590;2022-12-18T14:59:06;102323.16;;;-4.47;75.76
51524;BME280;37610;51.790;21.590;2022-12-18T15:03:18;102331.37;;;-4.55;76.39
51524;BME280;37610;51.790;21.590;2022-12-18T15:07:23;102328.11;;;-4.51;76.34
51524;BME280;37610;51.790;21.590;2022-12-18T15:11:43;102331.39;;;-4.42;76.05
51524;BME280;37610;51.790;21.590;2022-12-18T15:15:47;102342.63;;;-4.44;75.80
51524;BME280;37610;51.790;21.590;2022-12-18T15:19:52;102339.39;;;-4.40;75.94
51524;BME280;37610;51.790;21.590;2022-12-18T15:23:54;102337.08;;;-4.30;76.10
51524;BME280;37610;51.790;21.590;2022-12-18T15:27:56;102334.64;;;-4.29;76.12
51524;BME280;37610;51.790;21.590;2022-12-18T15:32:04;102343.03;;;-4.41;76.21
51524;BME280;37610;51.790;21.590;2022-12-18T15:36:11;102341.25;;;-4.49;76.23
51524;BME280;37610;51.790;21.590;2022-12-18T15:40:22;102341.60;;;-4.49;75.97
51524;BME280;37610;51.790;21.590;2022-12-18T15:44:24;102342.30;;;-4.49;76.35
51524;BME280;37610;51.790;21.590;2022-12-18T15:48:26;102349.06;;;-4.46;76.59
51524;BME280;37610;51.790;21.590;2022-12-18T15:52:28;102348.04;;;-4.50;76.83
51524;BME280;37610;51.790;21.590;2022-12-18T15:56:30;102354.36;;;-4.54;77.23
51524;BME280;37610;51.790;21.590;2022-12-18T16:00:51;102353.83;;;-4.53;77.11
51524;BME280;37610;51.790;21.590;2022-12-18T16:04:52;102362.64;;;-4.50;77.18
51524;BME280;37610;51.790;21.590;2022-12-18T16:08:55;102369.26;;;-4.53;77.22
51524;BME280;37610;51.790;21.590;2022-12-18T16:12:56;102374.75;;;-4.57;77.11
51524;BME280;37610;51.790;21.590;2022-12-18T16:17:03;102374.87;;;-4.65;76.96
51524;BME280;37610;51.790;21.590;2022-12-18T16:21:07;102386.04;;;-4.70;76.83
51524;BME280;37610;51.790;21.590;2022-12-18T16:25:19;102392.94;;;-4.70;77.09
51524;BME280;37610;51.790;21.590;2022-12-18T16:29:22;102399.33;;;-4.71;77.08
51524;BME280;37610;51.790;21.590;2022-12-18T16:33:28;102400.29;;;-4.78;76.88
51524;BME280;37610;51.790;21.590;2022-12-18T16:37:29;102405.27;;;-4.83;76.86
51524;BME280;37610;51.790;21.590;2022-12-18T16:41:31;102401.66;;;-4.87;77.18
51524;BME280;37610;51.790;21.590;2022-12-18T16:45:33;102393.23;;;-4.88;77.38
51524;BME280;37610;51.790;21.590;2022-12-18T16:49:34;102394.19;;;-4.90;77.03
51524;BME280;37610;51.790;21.590;2022-12-18T16:53:36;102390.84;;;-4.92;77.01
51524;BME280;37610;51.790;21.590;2022-12-18T16:57:37;102385.26;;;-4.95;77.30
51524;BME280;37610;51.790;21.590;2022-12-18T17:01:39;102390.40;;;-4.95;77.45
51524;BME280;37610;51.790;21.590;2022-12-18T17:05:42;102386.91;;;-4.93;77.45
51524;BME280;37610;51.790;21.590;2022-12-18T17:09:43;102381.80;;;-4.90;77.31
51524;BME280;37610;51.790;21.590;2022-12-18T17:13:45;102385.19;;;-4.88;77.56
51524;BME280;37610;51.790;21.590;2022-12-18T17:17:46;102385.98;;;-4.87;77.47
51524;BME280;37610;51.790;21.590;2022-12-18T17:21:49;102393.70;;;-4.86;77.43
51524;BME280;37610;51.790;21.590;2022-12-18T17:25:54;102397.11;;;-4.90;77.30
51524;BME280;37610;51.790;21.590;2022-12-18T17:29:57;102404.01;;;-4.96;77.63
51524;BME280;37610;51.790;21.590;2022-12-18T17:34:00;102411.02;;;-4.95;77.55
51524;BME280;37610;51.790;21.590;2022-12-18T17:38:02;102415.50;;;-4.91;77.38
51524;BME280;37610;51.790;21.590;2022-12-18T17:42:03;102412.02;;;-4.89;77.29
51524;BME280;37610;51.790;21.590;2022-12-18T17:46:05;102417.45;;;-4.87;77.44
51524;BME280;37610;51.790;21.590;2022-12-18T17:50:07;102425.54;;;-4.88;77.35
51524;BME280;37610;51.790;21.590;2022-12-18T17:54:10;102417.42;;;-5.01;77.47
51524;BME280;37610;51.790;21.590;2022-12-18T17:58:11;102415.21;;;-5.06;77.55
51524;BME280;37610;51.790;21.590;2022-12-18T18:02:13;102417.70;;;-5.09;77.41
51524;BME280;37610;51.790;21.590;2022-12-18T18:06:15;102421.36;;;-5.05;77.50
51524;BME280;37610;51.790;21.590;2022-12-18T18:10:16;102425.02;;;-5.07;77.56
51524;BME280;37610;51.790;21.590;2022-12-18T18:14:18;102430.02;;;-5.07;77.35
51524;BME280;37610;51.790;21.590;2022-12-18T18:18:20;102432.58;;;-5.07;77.18
51524;BME280;37610;51.790;21.590;2022-12-18T18:22:22;102432.55;;;-5.11;77.33
51524;BME280;37610;51.790;21.590;2022-12-18T18:26:23;102442.38;;;-5.12;77.50
51524;BME280;37610;51.790;21.590;2022-12-18T18:30:25;102453.30;;;-5.15;77.45
51524;BME280;37610;51.790;21.590;2022-12-18T18:34:28;102461.64;;;-5.23;77.42
51524;BME280;37610;51.790;21.590;2022-12-18T18:38:30;102457.73;;;-5.24;77.34
51524;BME280;37610;51.790;21.590;2022-12-18T18:42:32;102452.55;;;-5.18;77.46
51524;BME280;37610;51.790;21.590;2022-12-18T18:46:33;102451.66;;;-5.23;77.29
51524;BME280;37610;51.790;21.590;2022-12-18T18:50:35;102444.77;;;-5.22;77.45
51524;BME280;37610;51.790;21.590;2022-12-18T18:54:36;102447.55;;;-5.23;77.54
51524;BME280;37610;51.790;21.590;2022-12-18T18:58:38;102454.12;;;-5.30;77.43
51524;BME280;37610;51.790;21.590;2022-12-18T19:02:40;102456.61;;;-5.32;77.80
51524;BME280;37610;51.790;21.590;2022-12-18T19:06:44;102457.45;;;-5.26;77.62
51524;BME280;37610;51.790;21.590;2022-12-18T19:10:52;102451.46;;;-5.22;77.55
51524;BME280;37610;51.790;21.590;2022-12-18T19:14:54;102448.52;;;-5.16;77.61
51524;BME280;37610;51.790;21.590;2022-12-18T19:18:56;102453.05;;;-5.18;77.58
51524;BME280;37610;51.790;21.590;2022-12-18T19:22:57;102464.86;;;-5.22;77.33
51524;BME280;37610;51.790;21.590;2022-12-18T19:26:59;102476.63;;;-5.30;77.09
51524;BME280;37610;51.790;21.590;2022-12-18T19:31:03;102473.40;;;-5.31;77.39
51524;BME280;37610;51.790;21.590;2022-12-18T19:35:05;102469.11;;;-5.31;77.48
51524;BME280;37610;51.790;21.590;2022-12-18T19:39:13;102469.27;;;-5.36;77.54
51524;BME280;37610;51.790;21.590;2022-12-18T19:43:15;102472.05;;;-5.42;77.55
51524;BME280;37610;51.790;21.590;2022-12-18T19:47:16;102479.20;;;-5.40;77.42
51524;BME280;37610;51.790;21.590;2022-12-18T19:51:23;102493.16;;;-5.42;77.53
51524;BME280;37610;51.790;21.590;2022-12-18T19:55:25;102488.45;;;-5.50;77.51
51524;BME280;37610;51.790;21.590;2022-12-18T19:59:27;102486.55;;;-5.55;77.70
51524;BME280;37610;51.790;21.590;2022-12-18T20:03:29;102482.50;;;-5.62;77.50
51524;BME280;37610;51.790;21.590;2022-12-18T20:07:31;102489.96;;;-5.65;77.52
51524;BME280;37610;51.790;21.590;2022-12-18T20:11:33;102497.81;;;-5.64;77.78
51524;BME280;37610;51.790;21.590;2022-12-18T20:15:35;102508.60;;;-5.63;77.79
51524;BME280;37610;51.790;21.590;2022-12-18T20:19:37;102510.66;;;-5.63;77.45
51524;BME280;37610;51.790;21.590;2022-12-18T20:23:38;102515.37;;;-5.72;77.56
51524;BME280;37610;51.790;21.590;2022-12-18T20:27:40;102515.27;;;-5.84;77.70
51524;BME280;37610;51.790;21.590;2022-12-18T20:31:41;102505.91;;;-5.82;77.71
51524;BME280;37610;51.790;21.590;2022-12-18T20:35:43;102499.92;;;-5.77;77.81
51524;BME280;37610;51.790;21.590;2022-12-18T20:39:44;102493.77;;;-5.83;77.95
51524;BME280;37610;51.790;21.590;2022-12-18T20:43:47;102491.74;;;-5.89;77.98
51524;BME280;37610;51.790;21.590;2022-12-18T20:47:49;102477.90;;;-5.90;78.00
51524;BME280;37610;51.790;21.590;2022-12-18T20:51:52;102479.66;;;-5.91;78.01
51524;BME280;37610;51.790;21.590;2022-12-18T20:55:54;102474.34;;;-5.91;77.93
51524;BME280;37610;51.790;21.590;2022-12-18T20:59:56;102473.07;;;-5.89;77.93
51524;BME280;37610;51.790;21.590;2022-12-18T21:03:57;102468.20;;;-5.87;77.77
51524;BME280;37610;51.790;21.590;2022-12-18T21:07:59;102462.52;;;-5.86;77.59
51524;BME280;37610;51.790;21.590;2022-12-18T21:12:01;102455.36;;;-5.88;77.56
51524;BME280;37610;51.790;21.590;2022-12-18T21:16:21;102461.02;;;-5.99;77.72
51524;BME280;37610;51.790;21.590;2022-12-18T21:20:22;102464.11;;;-6.10;78.01
51524;BME280;37610;51.790;21.590;2022-12-18T21:24:24;102476.84;;;-6.23;78.10
51524;BME280;37610;51.790;21.590;2022-12-18T21:28:26;102484.35;;;-6.28;78.46
51524;BME280;37610;51.790;21.590;2022-12-18T21:32:27;102482.77;;;-6.39;78.92
51524;BME280;37610;51.790;21.590;2022-12-18T21:36:34;102485.37;;;-6.39;78.98
51524;BME280;37610;51.790;21.590;2022-12-18T21:40:37;102492.47;;;-6.42;79.10
51524;BME280;37610;51.790;21.590;2022-12-18T21:44:39;102496.61;;;-6.49;79.51
51524;BME280;37610;51.790;21.590;2022-12-18T21:48:41;102495.77;;;-6.50;79.76
51524;BME280;37610;51.790;21.590;2022-12-18T21:52:43;102493.38;;;-6.44;79.48
51524;BME280;37610;51.790;21.590;2022-12-18T22:00:53;102495.62;;;-6.44;79.37
51524;BME280;37610;51.790;21.590;2022-12-18T22:04:55;102481.95;;;-6.46;79.38
51524;BME280;37610;51.790;21.590;2022-12-18T22:08:57;102489.16;;;-6.46;79.42
51524;BME280;37610;51.790;21.590;2022-12-18T22:12:58;102478.42;;;-6.42;79.02
51524;BME280;37610;51.790;21.590;2022-12-18T22:17:00;102469.02;;;-6.49;79.40
51524;BME280;37610;51.790;21.590;2022-12-18T22:21:04;102458.31;;;-6.52;79.62